Time;durP1;ratioP1;P1;durP2;ratioP2;P2;SDS_P1;SDS_P2;PMS_P1;PMS_P2;Temp;Humidity;BMP_temperature;BMP_pressure;BME280_temperature;BME280_humidity;BME280_pressure;Samples;Min_cycle;Max_cycle;Signal;HPM_P1;HPM_P2
2022/06/29 00:00:29;;;;;;;5.97;4.22;;;18.00;99.90;;;17.20;83.29;97233.19;5061701;22;20421;-73
2022/06/29 00:02:56;;;;;;;5.57;4.65;;;18.00;99.90;;;17.21;83.31;97233.97;5028322;28;20407;-74
2022/06/29 00:05:25;;;;;;;6.60;4.43;;;18.00;99.90;;;17.21;83.19;97234.75;5023537;28;20473;-74
2022/06/29 00:07:53;;;;;;;7.72;4.50;;;18.00;99.90;;;17.18;82.94;97227.31;5017521;28;20433;-74
2022/06/29 00:10:20;;;;;;;6.15;3.95;;;18.00;99.90;;;17.17;82.93;97219.59;5031459;28;20417;-74
2022/06/29 00:12:48;;;;;;;5.00;3.92;;;17.90;99.90;;;17.12;82.90;97222.38;5031643;28;20425;-74
2022/06/29 00:15:17;;;;;;;6.22;4.32;;;17.90;99.90;;;17.11;82.79;97212.75;5028462;28;20488;-74
2022/06/29 00:17:43;;;;;;;4.60;3.83;;;17.90;99.90;;;17.09;82.73;97210.38;5032022;28;20825;-74
2022/06/29 00:20:12;;;;;;;6.05;4.22;;;17.90;99.90;;;17.07;82.72;97209.88;5024790;28;20444;-74
2022/06/29 00:22:38;;;;;;;7.35;4.22;;;17.90;99.90;;;17.10;82.94;97198.59;5012744;28;20412;-73
2022/06/29 00:25:06;;;;;;;4.95;3.85;;;17.90;99.90;;;17.06;83.06;97202.16;5014389;28;20405;-74
2022/06/29 00:27:32;;;;;;;5.35;3.97;;;17.80;99.90;;;17.05;83.36;97201.38;5031386;28;20771;-73
2022/06/29 00:29:58;;;;;;;4.40;3.67;;;17.80;99.90;;;16.99;83.37;97197.97;5031409;28;20746;-73
2022/06/29 00:32:24;;;;;;;3.97;3.58;;;17.80;99.90;;;16.93;83.59;97188.47;5028147;28;20417;-73
2022/06/29 00:34:50;;;;;;;6.57;3.90;;;17.70;99.90;;;16.92;83.79;97183.41;5012136;28;20511;-74
2022/06/29 00:37:18;;;;;;;4.68;3.85;;;17.70;99.90;;;16.92;84.00;97184.22;5015376;28;20478;-73
2022/06/29 00:39:44;;;;;;;5.03;4.25;;;17.70;99.90;;;16.92;84.05;97176.19;5013416;28;20478;-74
2022/06/29 00:42:10;;;;;;;6.15;3.58;;;17.70;99.90;;;16.90;83.92;97183.72;5000027;28;20448;-74
2022/06/29 00:44:35;;;;;;;4.97;3.80;;;17.70;99.90;;;16.88;83.87;97182.44;5013548;28;20930;-74
2022/06/29 00:47:05;;;;;;;4.90;3.70;;;17.70;99.90;;;16.87;84.18;97175.50;5012278;28;20413;-73
2022/06/29 00:49:33;;;;;;;5.95;4.07;;;17.70;99.90;;;16.89;84.11;97174.13;5011515;28;20412;-74
2022/06/29 00:52:05;;;;;;;6.25;4.13;;;17.70;99.90;;;16.90;84.21;97172.25;5014461;28;20416;-73
2022/06/29 00:54:36;;;;;;;5.40;3.90;;;17.70;99.90;;;16.87;84.23;97178.16;5030146;28;20433;-74
2022/06/29 00:57:08;;;;;;;6.05;4.00;;;17.70;99.90;;;16.85;83.95;97177.66;5026785;28;20439;-73
2022/06/29 00:59:42;;;;;;;4.78;3.90;;;17.60;99.90;;;16.84;84.26;97179.53;5030891;28;20447;-73
2022/06/29 01:02:09;;;;;;;5.22;4.35;;;17.60;99.90;;;16.82;84.44;97173.72;4999633;28;20411;-74
2022/06/29 01:04:35;;;;;;;4.40;4.00;;;17.60;99.90;;;16.84;84.29;97173.44;5014270;28;20416;-74
2022/06/29 01:07:01;;;;;;;6.32;4.18;;;17.60;99.90;;;16.83;84.76;97175.31;5019868;28;20788;-74
2022/06/29 01:09:27;;;;;;;7.47;4.22;;;17.60;99.90;;;16.84;84.86;97176.09;5030556;28;20406;-74
2022/06/29 01:11:54;;;;;;;4.93;4.13;;;17.60;99.90;;;16.84;84.82;97168.09;5015383;28;20422;-74
2022/06/29 01:14:20;;;;;;;5.53;4.50;;;17.60;99.90;;;16.80;84.86;97173.22;5011560;28;20412;-74
2022/06/29 01:16:47;;;;;;;4.97;4.03;;;17.60;99.90;;;16.80;85.04;97175.09;5025638;28;20912;-74
2022/06/29 01:19:12;;;;;;;8.43;4.40;;;17.60;99.90;;;16.77;85.16;97168.44;5030465;28;20422;-73
2022/06/29 01:21:42;;;;;;;8.33;4.40;;;17.60;99.90;;;16.77;85.15;97179.16;5030684;28;20419;-73
2022/06/29 01:24:09;;;;;;;5.45;4.20;;;17.60;99.90;;;16.75;85.01;97172.53;5012356;28;20421;-74
2022/06/29 01:26:35;;;;;;;6.15;4.55;;;17.50;99.90;;;16.76;85.12;97172.25;5021882;28;20904;-74
2022/06/29 01:29:01;;;;;;;5.50;4.50;;;17.60;99.90;;;16.73;85.31;97175.50;5010748;28;20428;-74
2022/06/29 01:31:27;;;;;;;6.25;4.63;;;17.60;99.90;;;16.72;85.41;97178.44;5011127;28;20413;-73
2022/06/29 01:33:53;;;;;;;6.38;4.75;;;17.50;99.90;;;16.74;85.53;97176.28;5023642;28;20457;-73
2022/06/29 01:36:19;;;;;;;9.13;4.63;;;17.50;99.90;;;16.72;85.68;97178.44;5019733;28;20444;-74
2022/06/29 01:38:45;;;;;;;8.43;4.83;;;17.50;99.90;;;16.67;85.73;97182.03;5017477;28;20417;-74
2022/06/29 01:41:12;;;;;;;7.95;4.95;;;17.50;99.90;;;16.63;85.77;97184.47;5010819;28;20910;-74
2022/06/29 01:43:39;;;;;;;5.90;4.33;;;17.40;99.90;;;16.62;86.02;97187.44;5020074;28;20411;-74
2022/06/29 01:46:05;;;;;;;6.97;4.68;;;17.40;99.90;;;16.62;86.27;97196.25;5026981;28;20426;-74
2022/06/29 01:48:31;;;;;;;5.65;4.65;;;17.40;99.90;;;16.62;86.10;97193.56;5029573;28;20430;-74
2022/06/29 01:50:57;;;;;;;7.93;4.78;;;17.40;99.90;;;16.62;86.35;97184.75;5030086;28;20417;-74
2022/06/29 01:53:23;;;;;;;8.50;4.80;;;17.40;99.90;;;16.64;86.23;97185.28;5029339;28;20406;-74
2022/06/29 01:55:50;;;;;;;5.63;4.40;;;17.40;99.90;;;16.63;86.34;97181.81;5027376;28;20419;-74
2022/06/29 01:58:17;;;;;;;6.30;4.50;;;17.50;99.90;;;16.60;86.20;97190.44;5010350;28;20428;-74
2022/06/29 02:00:43;;;;;;;5.82;5.00;;;17.40;99.90;;;16.58;86.49;97181.88;5010347;28;20421;-73
2022/06/29 02:03:09;;;;;;;7.25;4.43;;;17.40;99.90;;;16.59;86.67;97183.47;5025663;28;20422;-74
2022/06/29 02:05:35;;;;;;;5.90;4.80;;;17.40;99.90;;;16.61;86.79;97175.94;5025022;28;20808;-73
2022/06/29 02:08:01;;;;;;;8.32;4.93;;;17.40;99.90;;;16.60;86.63;97174.41;5011661;28;20454;-74
2022/06/29 02:10:28;;;;;;;5.18;4.68;;;17.40;99.90;;;16.60;86.77;97177.06;5027411;28;20411;-74
2022/06/29 02:12:53;;;;;;;6.07;4.65;;;17.40;99.90;;;16.61;86.87;97178.63;5029686;28;20494;-74
2022/06/29 02:15:23;;;;;;;7.43;4.95;;;17.40;99.90;;;16.63;86.89;97171.13;5012000;28;20912;-74
2022/06/29 02:17:49;;;;;;;5.75;4.57;;;17.40;99.90;;;16.70;86.60;97173.41;5029649;28;20403;-74
2022/06/29 02:20:15;;;;;;;5.55;4.63;;;17.40;99.90;;;16.70;86.49;97176.06;5024253;28;20439;-73
2022/06/29 02:22:41;;;;;;;6.07;4.88;;;17.50;99.90;;;16.71;86.66;97174.19;5010506;28;20446;-74
2022/06/29 02:25:08;;;;;;;4.85;4.35;;;17.50;99.90;;;16.70;86.67;97162.72;5010184;28;20495;-74
2022/06/29 02:27:39;;;;;;;6.60;4.50;;;17.50;99.90;;;16.73;86.87;97164.81;5010385;28;20529;-74
2022/06/29 02:30:07;;;;;;;6.78;4.50;;;17.50;99.90;;;16.71;86.45;97152.81;5022444;28;20509;-74
2022/06/29 02:35:19;;;;;;;6.70;4.78;;;17.40;99.90;;;16.62;86.79;97139.34;5016617;28;20411;-74
2022/06/29 02:37:45;;;;;;;5.10;4.40;;;17.40;99.90;;;16.57;86.63;97136.72;5023667;28;20510;-74
2022/06/29 02:40:11;;;;;;;5.03;4.40;;;17.30;99.90;;;16.54;87.07;97145.31;5028307;28;20498;-74
2022/06/29 02:42:37;;;;;;;5.22;4.45;;;17.30;99.90;;;16.54;87.01;97140.78;5025164;28;20535;-74
2022/06/29 02:45:04;;;;;;;6.85;4.75;;;17.30;99.90;;;16.54;86.93;97139.97;5010143;28;20409;-74
2022/06/29 02:47:30;;;;;;;6.10;4.85;;;17.30;99.90;;;16.52;87.13;97142.97;5020816;28;20498;-74
2022/06/29 02:49:57;;;;;;;6.35;4.80;;;17.30;99.90;;;16.47;87.42;97145.72;5028639;28;20959;-74
2022/06/29 02:52:23;;;;;;;6.68;4.65;;;17.30;99.90;;;16.46;87.54;97146.81;5028981;28;20415;-73
2022/06/29 02:54:49;;;;;;;6.55;4.85;;;17.30;99.90;;;16.44;87.58;97140.19;5027645;28;20407;-74
2022/06/29 02:57:15;;;;;;;5.90;5.13;;;17.20;99.90;;;16.43;87.54;97138.59;5023934;28;21095;-73
2022/06/29 02:59:41;;;;;;;5.93;4.53;;;17.20;99.90;;;16.42;87.61;97137.00;5009378;28;20444;-73
2022/06/29 03:02:07;;;;;;;8.90;4.57;;;17.20;99.90;;;16.41;87.64;97130.88;5009383;28;20451;-74
2022/06/29 03:04:34;;;;;;;5.80;4.97;;;17.20;99.90;;;16.41;87.64;97138.88;5000664;28;20434;-74
2022/06/29 03:07:02;;;;;;;5.28;4.78;;;17.20;99.90;;;16.34;87.67;97137.69;5022495;28;20409;-73
2022/06/29 03:09:28;;;;;;;7.25;4.72;;;17.20;99.90;;;16.29;87.92;97141.25;5009189;28;20425;-74
2022/06/29 03:11:54;;;;;;;7.10;5.00;;;17.10;99.90;;;16.27;88.13;97136.19;4999305;28;20414;-74
2022/06/29 03:14:20;;;;;;;5.73;4.37;;;17.10;99.90;;;16.24;88.06;97133.28;5017446;28;20413;-74
2022/06/29 03:16:46;;;;;;;6.40;4.88;;;17.10;99.90;;;16.27;88.37;97136.19;5013999;28;21226;-74
2022/06/29 03:19:12;;;;;;;5.60;4.90;;;17.10;99.90;;;16.25;88.15;97133.00;5028093;28;20432;-73
2022/06/29 03:21:37;;;;;;;5.22;4.72;;;17.10;99.90;;;16.23;88.28;97129.84;5029049;28;20426;-73
2022/06/29 03:24:05;;;;;;;7.45;5.00;;;17.10;99.90;;;16.22;88.26;97130.16;5020609;28;20459;-73
2022/06/29 03:26:31;;;;;;;8.83;4.90;;;17.00;99.90;;;16.20;88.15;97134.97;5011600;28;20457;-73
2022/06/29 03:28:57;;;;;;;5.75;4.72;;;17.00;99.90;;;16.15;88.67;97135.88;5028058;28;20411;-74
2022/06/29 03:31:23;;;;;;;5.68;4.97;;;16.90;99.90;;;16.13;88.67;97139.91;5027274;28;20750;-74
2022/06/29 03:33:50;;;;;;;6.65;5.03;;;16.90;99.90;;;16.11;88.65;97137.53;5016205;28;20502;-74
2022/06/29 03:36:16;;;;;;;5.78;4.80;;;16.90;99.90;;;16.16;88.61;97137.44;5028892;28;20411;-74
2022/06/29 03:38:42;;;;;;;6.18;5.03;;;17.00;99.90;;;16.11;88.48;97137.53;4991542;28;20416;-74
2022/06/29 03:41:09;;;;;;;6.15;5.10;;;16.90;99.90;;;16.09;88.73;97137.00;5009309;28;20428;-74
2022/06/29 03:43:35;;;;;;;7.28;4.68;;;16.90;99.90;;;16.09;88.70;97134.34;5013467;28;20933;-74
2022/06/29 03:46:01;;;;;;;7.40;4.60;;;16.90;99.90;;;16.09;88.62;97130.88;5013461;28;20419;-74
2022/06/29 03:48:29;;;;;;;6.70;5.07;;;16.90;99.90;;;16.08;88.53;97132.78;5014319;28;20515;-74
2022/06/29 03:50:55;;;;;;;5.28;4.50;;;16.90;99.90;;;16.10;88.76;97138.59;5012808;28;20471;-73
2022/06/29 03:53:21;;;;;;;6.15;4.30;;;16.90;99.90;;;16.09;88.65;97128.22;5014161;28;20408;-73
2022/06/29 03:55:47;;;;;;;5.40;4.40;;;16.90;99.90;;;16.06;88.60;97134.16;5026421;28;20411;-73
2022/06/29 03:58:14;;;;;;;4.80;4.10;;;16.90;99.90;;;16.05;88.72;97128.00;5015929;28;20411;-73
2022/06/29 04:00:40;;;;;;;7.25;4.40;;;16.80;99.90;;;16.05;88.77;97125.34;5010661;28;20890;-73
2022/06/29 04:03:06;;;;;;;7.18;4.90;;;16.90;99.90;;;16.08;88.95;97126.66;5012130;28;20427;-74
2022/06/29 04:05:32;;;;;;;5.53;4.50;;;16.90;99.90;;;16.05;88.84;97124.56;5006733;28;20486;-73
2022/06/29 04:07:58;;;;;;;7.28;4.72;;;16.90;99.90;;;16.06;89.07;97121.59;5009916;28;20413;-73
2022/06/29 04:10:24;;;;;;;7.43;4.60;;;16.90;99.90;;;16.07;89.20;97117.84;5003811;28;20494;-73
2022/06/29 04:12:50;;;;;;;6.22;4.40;;;16.80;99.90;;;16.07;89.34;97119.72;5003517;28;20418;-73
2022/06/29 04:15:17;;;;;;;4.53;4.13;;;16.90;99.90;;;16.09;89.50;97125.53;5006806;28;20940;-73
2022/06/29 04:17:43;;;;;;;6.93;5.03;;;16.90;99.90;;;16.14;89.62;97120.94;5009673;28;20500;-73
2022/06/29 04:21:05;;;;;;;6.83;5.07;;;16.90;99.90;;;16.15;89.50;97122.53;5009792;28;20836;-72
2022/06/29 04:23:01;;;;;;;6.00;4.80;;;17.00;99.90;;;16.17;89.46;97125.66;5007075;28;20436;-73
2022/06/29 04:25:28;;;;;;;7.57;5.18;;;17.00;99.90;;;16.23;89.50;97129.06;5012547;28;20466;-74
2022/06/29 04:27:54;;;;;;;5.60;5.00;;;17.00;99.90;;;16.24;89.18;97125.28;5008006;28;20442;-73
2022/06/29 04:30:22;;;;;;;5.75;4.80;;;17.00;99.90;;;16.27;89.09;97124.72;5009193;28;20496;-72
2022/06/29 04:32:48;;;;;;;6.35;4.50;;;17.10;99.90;;;16.31;89.07;97124.94;5013297;28;20414;-73
2022/06/29 04:35:14;;;;;;;7.50;5.13;;;17.10;99.90;;;16.34;89.06;97125.13;5005626;28;20997;-72
2022/06/29 04:37:40;;;;;;;5.50;4.63;;;17.10;99.90;;;16.35;88.81;97128.59;5006578;28;20424;-72
2022/06/29 04:40:07;;;;;;;6.97;5.37;;;17.10;99.90;;;16.39;88.90;97134.94;5006832;28;20775;-72
2022/06/29 04:42:33;;;;;;;5.65;5.03;;;17.10;99.90;;;16.41;88.94;97132.75;5006174;28;20460;-73
2022/06/29 04:44:59;;;;;;;5.47;4.97;;;17.20;99.90;;;16.44;88.89;97132.97;5009832;28;20774;-74
2022/06/29 04:47:26;;;;;;;5.70;5.07;;;17.20;99.90;;;16.48;88.67;97133.16;5009493;28;20481;-74
2022/06/29 04:49:52;;;;;;;5.80;5.07;;;17.30;99.90;;;16.51;88.56;97138.72;5005105;28;20412;-74
2022/06/29 04:52:18;;;;;;;6.22;5.38;;;17.30;99.90;;;16.57;88.32;97140.19;5009464;28;20405;-73
2022/06/29 04:54:44;;;;;;;7.63;4.95;;;17.30;99.90;;;16.60;88.16;97138.81;5006247;28;20753;-74
2022/06/29 04:57:10;;;;;;;7.80;5.20;;;17.40;99.90;;;16.65;88.36;97141.44;5006655;28;20954;-73
2022/06/29 04:59:36;;;;;;;5.35;4.82;;;17.40;99.90;;;16.71;88.32;97137.56;5003601;28;20397;-73
2022/06/29 05:02:02;;;;;;;7.05;5.35;;;17.50;99.90;;;16.78;88.21;97145.97;5026668;28;20825;-74
2022/06/29 05:04:29;;;;;;;7.75;5.10;;;17.50;99.90;;;16.87;88.21;97135.41;5010298;28;20415;-74
2022/06/29 05:06:55;;;;;;;6.03;5.03;;;17.60;99.90;;;16.96;88.11;97131.75;5010200;28;20744;-72
2022/06/29 05:09:21;;;;;;;6.95;4.82;;;17.70;99.90;;;17.06;88.06;97130.75;5009594;28;20470;-73
2022/06/29 05:11:47;;;;;;;5.93;5.13;;;17.80;99.90;;;17.14;87.94;97132.69;4996034;28;20457;-73
2022/06/29 05:14:13;;;;;;;6.63;4.80;;;17.90;99.90;;;17.22;87.51;97133.88;4990501;28;20505;-74
2022/06/29 05:16:39;;;;;;;7.63;5.47;;;18.00;99.90;;;17.27;87.22;97139.13;4990781;28;20411;-73
2022/06/29 05:19:05;;;;;;;5.28;4.78;;;18.00;99.90;;;17.28;87.06;97133.50;4991061;28;20901;-75
2022/06/29 05:21:33;;;;;;;5.70;4.88;;;18.00;99.90;;;17.26;86.97;97135.66;4991777;28;20434;-74
2022/06/29 05:23:59;;;;;;;6.65;4.80;;;18.00;99.90;;;17.27;87.18;97141.81;4992386;28;20525;-73
2022/06/29 05:26:25;;;;;;;7.25;4.72;;;18.00;99.90;;;17.27;87.54;97129.22;5003966;28;20942;-73
2022/06/29 05:28:51;;;;;;;5.40;4.53;;;18.00;99.90;;;17.31;87.56;97135.56;5028707;28;20445;-74
2022/06/29 05:31:20;;;;;;;5.80;4.72;;;18.10;99.90;;;17.37;87.71;97136.22;5012381;28;20404;-73
2022/06/29 05:33:46;;;;;;;5.00;4.50;;;18.10;99.90;;;17.46;87.59;97133.63;5024060;28;20448;-73
2022/06/29 05:36:12;;;;;;;6.25;4.35;;;18.20;99.90;;;17.52;87.41;97127.88;5011291;28;20448;-73
2022/06/29 05:38:39;;;;;;;6.28;4.20;;;18.20;99.90;;;17.58;87.15;97131.25;5026451;28;20469;-74
2022/06/29 05:41:05;;;;;;;5.25;4.22;;;18.30;99.90;;;17.64;87.23;97130.84;5010925;28;20786;-73
2022/06/29 05:43:31;;;;;;;5.07;3.70;;;18.40;99.90;;;17.72;87.03;97134.69;5026669;28;20429;-73
2022/06/29 05:45:57;;;;;;;4.20;3.80;;;18.40;99.90;;;17.80;86.64;97133.97;5029841;28;20432;-73
2022/06/29 05:48:24;;;;;;;4.43;4.03;;;18.50;99.90;;;17.88;86.34;97133.25;5019874;28;20419;-73
2022/06/29 05:50:50;;;;;;;6.57;4.30;;;18.60;99.90;;;17.94;85.92;97140.06;5029921;28;20411;-73
2022/06/29 05:53:16;;;;;;;4.78;4.25;;;18.70;99.90;;;18.02;85.66;97133.19;5030315;28;20503;-74
2022/06/29 05:55:43;;;;;;;6.18;4.45;;;18.70;99.90;;;18.08;85.45;97142.69;5011739;28;20416;-73
2022/06/29 05:58:11;;;;;;;5.05;4.55;;;18.80;99.90;;;18.13;85.23;97146.03;5022431;28;20442;-73
2022/06/29 06:03:09;;;;;;;7.88;5.68;;;18.90;99.90;;;18.21;85.04;97144.50;5028438;28;20436;-77
2022/06/29 06:05:35;;;;;;;6.33;4.90;;;18.90;99.90;;;18.26;84.98;97138.25;5031947;28;20399;-75
2022/06/29 06:08:01;;;;;;;9.57;5.30;;;18.90;99.90;;;18.29;84.65;97140.28;5035117;28;20820;-76
2022/06/29 06:10:27;;;;;;;5.55;4.82;;;19.00;99.90;;;18.31;84.50;97136.22;5029934;28;20422;-76
2022/06/29 06:12:54;;;;;;;6.00;5.00;;;19.00;99.90;;;18.33;84.41;97128.66;5010824;28;20499;-76
2022/06/29 06:15:20;;;;;;;5.60;4.90;;;19.00;99.90;;;18.36;84.20;97133.41;5009697;28;20465;-76
2022/06/29 06:17:46;;;;;;;5.22;4.72;;;19.00;99.90;;;18.37;84.22;97134.19;5010628;28;20416;-76
2022/06/29 06:20:12;;;;;;;6.30;4.55;;;19.00;99.90;;;18.39;84.04;97138.16;5009292;28;20531;-76
2022/06/29 06:22:38;;;;;;;6.30;4.72;;;19.00;99.90;;;18.41;83.89;97145.91;5010132;28;20479;-76
2022/06/29 06:25:05;;;;;;;7.30;4.88;;;19.10;99.90;;;18.45;83.99;97142.28;5010216;28;20443;-75
2022/06/29 06:27:31;;;;;;;5.63;4.40;;;19.10;99.90;;;18.53;84.07;97140.75;5010219;28;21002;-76
2022/06/29 06:29:58;;;;;;;5.35;4.25;;;19.20;99.90;;;18.65;84.13;97150.91;5013501;28;20422;-76
2022/06/29 06:32:24;;;;;;;4.70;3.92;;;19.30;99.90;;;18.82;84.00;97145.63;5013288;28;20413;-77
2022/06/29 06:34:50;;;;;;;5.53;4.55;;;19.40;99.90;;;19.05;83.53;97147.13;5009650;28;20914;-76
2022/06/29 06:37:16;;;;;;;4.68;4.03;;;19.60;99.90;;;19.28;82.42;97131.72;5008908;28;20417;-77
2022/06/29 06:41:21;;;;;;;4.68;3.70;;;19.80;99.90;;;19.45;80.66;97137.13;5008688;28;20555;-76
2022/06/29 06:42:28;;;;;;;4.43;3.65;;;20.00;99.90;;;19.55;80.37;97139.53;5004445;28;20918;-77
2022/06/29 06:44:54;;;;;;;5.18;3.70;;;20.10;99.90;;;19.63;80.41;97138.75;5011674;28;20420;-76
2022/06/29 06:47:21;;;;;;;5.20;3.60;;;20.20;99.90;;;19.71;79.91;97134.50;5012341;28;20430;-76
2022/06/29 06:49:48;;;;;;;4.15;3.25;;;20.30;99.90;;;19.78;79.62;97132.13;5008957;28;20413;-75
2022/06/29 06:52:16;;;;;;;3.92;3.53;;;20.40;99.90;;;19.84;79.53;97135.47;4999513;28;20424;-76
2022/06/29 06:54:44;;;;;;;3.70;3.17;;;20.40;99.90;;;19.95;79.29;97139.38;5008825;28;20455;-76
2022/06/29 06:57:10;;;;;;;3.42;3.10;;;20.50;99.90;;;20.09;78.78;97140.78;5009264;28;20470;-78
2022/06/29 06:59:37;;;;;;;4.60;3.53;;;20.70;99.90;;;20.28;78.09;97129.72;5009084;28;20417;-75
2022/06/29 07:02:03;;;;;;;3.50;3.20;;;20.80;99.90;;;20.44;77.38;97136.19;5009589;28;20428;-76
2022/06/29 07:04:31;;;;;;;4.00;3.00;;;20.90;99.90;;;20.59;76.91;97140.25;5012307;28;20803;-77
2022/06/29 07:06:57;;;;;;;4.30;3.20;;;21.10;99.90;;;20.70;76.56;97140.69;5009008;28;20420;-76
2022/06/29 07:09:23;;;;;;;4.40;3.30;;;21.20;99.90;;;20.72;76.13;97138.47;5009036;28;20983;-77
2022/06/29 07:11:49;;;;;;;3.30;3.00;;;21.30;99.90;;;20.73;75.80;97143.53;5008997;28;20535;-77
2022/06/29 07:14:14;;;;;;;6.45;3.60;;;21.30;99.90;;;20.71;73.87;97139.56;5006818;28;20423;-76
2022/06/29 07:16:40;;;;;;;3.67;3.20;;;21.30;99.90;;;20.69;74.66;97134.50;5011906;28;20414;-76
2022/06/29 07:19:07;;;;;;;5.57;3.42;;;21.30;99.90;;;20.64;74.39;97144.66;5012261;28;20783;-76
2022/06/29 07:21:34;;;;;;;6.15;3.70;;;21.20;99.90;;;20.59;74.29;97137.56;5013448;28;20427;-76
2022/06/29 07:24:00;;;;;;;5.32;3.50;;;21.20;99.90;;;20.54;74.06;97140.41;5013404;28;20495;-76
2022/06/29 07:26:26;;;;;;;4.85;3.47;;;21.10;99.90;;;20.50;74.49;97138.69;5012393;28;20419;-76
2022/06/29 07:28:52;;;;;;;4.90;3.50;;;21.10;99.90;;;20.50;74.57;97136.00;5012912;28;20416;-76
2022/06/29 07:31:18;;;;;;;4.25;3.38;;;21.10;99.90;;;20.52;74.74;97137.28;4991933;28;20575;-75
2022/06/29 07:33:44;;;;;;;4.97;3.22;;;21.10;99.90;;;20.53;74.48;97132.66;5011701;28;20997;-75
2022/06/29 07:36:11;;;;;;;4.07;3.40;;;21.10;99.90;;;20.60;75.06;97141.06;4993048;28;20479;-75
2022/06/29 07:38:38;;;;;;;4.20;3.60;;;21.20;99.90;;;20.65;75.02;97136.28;5012460;28;20408;-75
2022/06/29 07:41:05;;;;;;;3.78;3.03;;;21.20;99.90;;;20.73;74.92;97131.97;5013611;28;20424;-76
2022/06/29 07:43:31;;;;;;;3.50;3.10;;;21.30;99.90;;;20.79;74.58;97131.47;5013449;28;20822;-76
2022/06/29 07:45:57;;;;;;;3.33;3.03;;;21.30;99.90;;;20.83;73.78;97135.09;5013744;28;21015;-75
2022/06/29 07:48:23;;;;;;;4.68;3.30;;;21.40;99.90;;;20.90;74.08;97147.28;5012230;28;20469;-76
2022/06/29 07:50:50;;;;;;;3.53;3.15;;;21.40;99.90;;;20.99;73.86;97140.72;5011774;28;20417;-76
2022/06/29 07:53:16;;;;;;;5.80;3.60;;;21.50;99.90;;;21.11;73.57;97140.03;5013142;28;20499;-75
2022/06/29 07:55:44;;;;;;;4.35;3.50;;;21.60;99.90;;;21.30;72.43;97134.25;5022205;28;20504;-76
2022/06/29 07:58:11;;;;;;;3.78;3.40;;;21.80;99.90;;;21.47;71.47;97128.75;5019198;28;20423;-75
2022/06/29 08:00:38;;;;;;;3.38;3.08;;;21.90;99.90;;;21.66;71.62;97134.47;5012291;28;20428;-79
2022/06/29 08:03:04;;;;;;;4.72;2.97;;;22.10;99.90;;;21.93;71.21;97138.56;5008566;28;20412;-74
2022/06/29 08:05:30;;;;;;;3.75;3.10;;;22.30;99.90;;;22.18;70.62;97142.16;5011823;28;20416;-75
2022/06/29 08:07:56;;;;;;;5.10;3.60;;;22.60;99.90;;;22.38;69.76;97134.03;5011944;28;20503;-74
2022/06/29 08:10:22;;;;;;;14.05;4.68;;;22.80;99.90;;;22.37;66.66;97137.84;5010825;28;20779;-75
2022/06/29 08:12:50;;;;;;;6.57;4.32;;;23.00;99.90;;;22.61;66.55;97137.13;5018894;28;20417;-76
2022/06/29 08:15:17;;;;;;;5.43;3.83;;;23.10;99.20;;;22.70;67.04;97132.38;5016495;28;20410;-75
2022/06/29 08:17:43;;;;;;;6.78;3.90;;;23.20;99.20;;;22.80;67.04;97133.13;5023883;28;20422;-75
2022/06/29 08:20:11;;;;;;;6.28;4.10;;;23.20;99.40;;;22.90;67.41;97135.38;5015966;28;20443;-74
2022/06/29 08:22:36;;;;;;;5.30;4.03;;;23.30;99.70;;;22.99;66.58;97130.66;5012575;28;20428;-78
2022/06/29 08:25:04;;;;;;;6.10;3.97;;;23.40;99.20;;;23.14;66.31;97135.38;5013222;28;20433;-76
2022/06/29 08:27:33;;;;;;;6.43;3.95;;;23.60;98.40;;;23.29;66.66;97133.91;5013301;28;20508;-77
2022/06/29 08:30:01;;;;;;;6.70;4.15;;;23.70;98.40;;;23.46;65.42;97134.44;5016972;28;20412;-76
2022/06/29 08:32:27;;;;;;;7.28;3.75;;;23.90;97.40;;;23.65;65.58;97135.78;5011812;28;20427;-76
2022/06/29 08:34:55;;;;;;;9.80;4.75;;;24.00;97.10;;;23.54;62.69;97130.06;5011472;28;20417;-79
2022/06/29 08:37:21;;;;;;;5.50;4.05;;;24.10;95.00;;;23.65;62.46;97127.69;5012135;28;20451;-77
2022/06/29 08:39:47;;;;;;;5.82;4.13;;;24.10;92.90;;;23.69;63.86;97129.34;5011460;28;20923;-76
2022/06/29 08:42:16;;;;;;;5.10;3.80;;;24.10;93.90;;;23.72;63.98;97123.28;5011249;28;20463;-75
2022/06/29 08:44:42;;;;;;;7.15;4.18;;;24.10;94.00;;;23.78;64.12;97119.19;5011660;28;20906;-75
2022/06/29 08:47:10;;;;;;;6.60;4.07;;;24.20;94.10;;;23.88;62.19;97131.44;5010286;28;20431;-78
2022/06/29 08:49:37;;;;;;;9.20;6.03;;;24.30;92.20;;;23.99;62.96;97127.13;5010199;28;20452;-76
2022/06/29 08:52:05;;;;;;;6.60;5.17;;;24.40;92.60;;;24.04;61.83;97132.31;5010841;28;20435;-74
2022/06/29 08:54:35;;;;;;;10.98;7.00;;;24.50;91.50;;;24.03;62.33;97125.31;5011132;28;20507;-76
2022/06/29 08:57:04;;;;;;;9.90;4.63;;;24.50;91.70;;;24.02;62.83;97137.25;5012023;28;20427;-75
2022/06/29 08:59:33;;;;;;;12.02;5.82;;;24.50;92.30;;;24.01;62.69;97132.97;5011232;28;20503;-76
2022/06/29 09:01:59;;;;;;;6.50;4.28;;;24.50;92.30;;;24.11;63.28;97129.78;5011134;28;20903;-76
2022/06/29 09:04:27;;;;;;;8.68;4.45;;;24.50;92.50;;;24.15;60.26;97127.16;5011112;28;20435;-75
2022/06/29 09:06:55;;;;;;;6.67;4.43;;;24.60;90.00;;;24.10;57.19;97130.13;5011465;28;20451;-75
2022/06/29 09:09:22;;;;;;;8.27;4.07;;;24.70;82.80;;;24.27;55.97;97129.84;5010653;28;20415;-76
2022/06/29 09:11:51;;;;;;;5.07;3.53;;;24.70;80.30;;;24.06;57.54;97135.41;5010796;28;20405;-76
2022/06/29 09:14:20;;;;;;;6.50;3.80;;;24.60;81.90;;;23.99;56.06;97132.53;5007905;28;20413;-77
2022/06/29 09:16:58;;;;;;;5.43;4.25;;;24.50;79.90;;;23.85;55.78;97126.72;5008791;28;20416;-76
2022/06/29 09:19:29;;;;;;;6.95;4.45;;;24.50;79.30;;;23.65;58.44;97123.06;5009807;28;20413;-75
2022/06/29 09:21:57;;;;;;;6.72;4.18;;;24.20;81.30;;;23.52;60.29;97132.34;5010766;28;20474;-77
2022/06/29 09:24:26;;;;;;;7.15;4.20;;;24.00;85.10;;;23.42;59.15;97130.06;5011193;28;20914;-75
2022/06/29 09:26:56;;;;;;;7.95;4.50;;;23.90;84.20;;;23.35;58.76;97122.53;4999960;28;20427;-75
2022/06/29 09:29:24;;;;;;;8.68;4.47;;;23.80;84.10;;;23.29;58.27;97129.31;5010191;28;20441;-77
2022/06/29 09:32:14;;;;;;;6.70;3.97;;;23.80;82.20;;;23.16;59.53;97127.72;5010209;28;21299;-76
2022/06/29 09:34:45;;;;;;;4.38;3.60;;;23.70;83.80;;;23.01;60.59;97133.78;5010949;28;20447;-75
2022/06/29 09:37:13;;;;;;;4.95;3.40;;;23.60;86.10;;;23.00;61.10;97133.03;5010975;28;20516;-75
2022/06/29 09:39:42;;;;;;;5.00;3.78;;;23.50;87.10;;;23.02;61.38;97129.97;4990719;28;20917;-76
2022/06/29 09:42:12;;;;;;;5.85;3.97;;;23.50;88.50;;;23.08;61.03;97128.66;5008334;28;20448;-76
2022/06/29 09:44:38;;;;;;;4.05;3.65;;;23.50;87.70;;;23.04;61.34;97131.22;5010277;28;20424;-76
2022/06/29 09:47:07;;;;;;;6.93;4.22;;;23.60;88.30;;;23.10;61.35;97137.19;5019267;28;20420;-75
2022/06/29 09:49:36;;;;;;;5.32;3.80;;;23.60;88.60;;;23.13;61.65;97141.91;5009909;28;20916;-75
2022/06/29 09:52:06;;;;;;;6.55;3.72;;;23.60;89.00;;;23.13;62.09;97140.00;5010428;28;20463;-76
2022/06/29 09:54:38;;;;;;;3.60;3.30;;;23.60;89.50;;;23.19;62.44;97145.97;5009800;28;20532;-75
2022/06/29 09:57:06;;;;;;;4.53;3.40;;;23.70;90.40;;;23.22;62.68;97141.81;5006909;28;20405;-74
2022/06/29 10:02:39;;;;;;;4.60;4.13;;;23.70;90.90;;;23.27;61.49;97136.16;5008131;28;20509;-73
2022/06/29 10:05:09;;;;;;;6.13;3.72;;;23.70;89.40;;;23.39;59.37;97139.63;5013781;28;20484;-74
2022/06/29 10:07:39;;;;;;;6.13;4.23;;;23.90;85.70;;;23.38;59.18;97138.03;5015258;28;20405;-74
2022/06/29 10:10:08;;;;;;;5.97;3.40;;;23.90;84.80;;;23.42;60.02;97130.84;5007080;28;20409;-74
2022/06/29 10:16:09;;;;;;;6.40;3.70;;;23.90;88.10;;;23.51;61.17;97126.16;5005218;28;20474;-76
2022/06/29 10:19:00;;;;;;;6.72;3.88;;;24.00;88.90;;;23.53;61.45;97134.69;5007241;28;20408;-75
2022/06/29 10:21:31;;;;;;;3.53;3.15;;;24.00;88.40;;;23.66;61.70;97130.06;4999621;28;20416;-75
2022/06/29 10:23:59;;;;;;;5.03;3.10;;;24.10;89.20;;;23.76;61.63;97126.84;4990311;28;20427;-74
2022/06/29 10:26:44;;;;;;;8.80;4.43;;;24.20;89.80;;;23.92;59.41;97126.91;5008014;28;20477;-74
2022/06/29 10:29:32;;;;;;;5.97;4.10;;;24.30;86.00;;;24.11;59.01;97132.50;5007522;28;20409;-74
2022/06/29 10:32:21;;;;;;;7.13;3.63;;;24.50;84.40;;;24.11;58.10;97121.69;5008809;28;20417;-76